Time;durP1;ratioP1;P1;durP2;ratioP2;P2;SDS_P1;SDS_P2;PMS_P1;PMS_P2;Temp;Humidity;BMP_temperature;BMP_pressure;BME280_temperature;BME280_humidity;BME280_pressure;Samples;Min_cycle;Max_cycle;Signal;HPM_P1;HPM_P2
2021/09/08 00:02:20;;;;;;;13.20;8.20;;;18.70;99.90;;;;;;5074232;28;20028;-75
2021/09/08 00:04:46;;;;;;;15.13;8.63;;;18.70;99.90;;;;;;5074218;28;20037;-75
2021/09/08 00:07:12;;;;;;;16.10;8.98;;;18.60;99.90;;;;;;5073947;28;20028;-75
2021/09/08 00:09:38;;;;;;;13.55;8.18;;;18.60;99.90;;;;;;5073794;28;20040;-75
2021/09/08 00:12:05;;;;;;;13.63;9.10;;;18.60;99.90;;;;;;5072716;28;20029;-75
2021/09/08 00:14:31;;;;;;;12.63;8.55;;;18.50;99.90;;;;;;5072416;28;20045;-75
2021/09/08 00:16:57;;;;;;;13.23;8.77;;;18.40;99.90;;;;;;5073669;28;20103;-75
2021/09/08 00:19:22;;;;;;;13.68;9.20;;;18.30;99.90;;;;;;5073775;28;20458;-75
2021/09/08 00:21:48;;;;;;;14.18;8.80;;;18.30;99.90;;;;;;5073429;28;20036;-75
2021/09/08 00:24:14;;;;;;;12.70;8.65;;;18.30;99.90;;;;;;5073363;28;20067;-75
2021/09/08 00:26:40;;;;;;;16.27;9.27;;;18.40;99.90;;;;;;5073465;28;20023;-74
2021/09/08 00:29:06;;;;;;;13.98;9.45;;;18.50;99.90;;;;;;5073146;28;20115;-74
2021/09/08 00:31:32;;;;;;;16.63;9.57;;;18.40;99.90;;;;;;5073771;28;20028;-75
2021/09/08 00:33:58;;;;;;;13.65;9.18;;;18.30;99.90;;;;;;5073472;28;20060;-75
2021/09/08 00:36:24;;;;;;;14.52;9.32;;;18.20;99.90;;;;;;5055951;28;20056;-75
2021/09/08 00:38:50;;;;;;;16.98;9.45;;;18.20;99.90;;;;;;5073366;28;20059;-75
2021/09/08 00:41:15;;;;;;;13.73;8.45;;;18.20;99.90;;;;;;5073352;28;20032;-75
2021/09/08 00:43:41;;;;;;;13.43;9.27;;;18.20;99.90;;;;;;5073107;28;20032;-75
2021/09/08 00:46:07;;;;;;;15.57;9.32;;;18.00;99.90;;;;;;5073352;28;20134;-75
2021/09/08 00:48:33;;;;;;;18.52;9.73;;;17.80;99.90;;;;;;5073113;28;20033;-75
2021/09/08 00:50:58;;;;;;;14.40;8.68;;;17.80;99.90;;;;;;5071773;28;20040;-75
2021/09/08 00:53:24;;;;;;;16.70;10.00;;;17.80;99.90;;;;;;5073008;28;20032;-74
2021/09/08 00:55:51;;;;;;;17.42;10.38;;;17.80;99.90;;;;;;5071726;28;20039;-74
2021/09/08 00:58:17;;;;;;;18.52;10.00;;;17.80;99.90;;;;;;5071589;28;20119;-74
2021/09/08 01:00:43;;;;;;;16.35;9.98;;;17.90;99.90;;;;;;5071697;28;20032;-74
2021/09/08 01:03:09;;;;;;;15.82;9.88;;;17.90;99.90;;;;;;5072386;28;20036;-74
2021/09/08 01:05:35;;;;;;;14.88;9.68;;;17.90;99.90;;;;;;5071960;28;20048;-74
2021/09/08 01:08:01;;;;;;;16.20;10.10;;;17.80;99.90;;;;;;5071303;28;20090;-74
2021/09/08 01:10:30;;;;;;;15.63;10.63;;;17.70;99.90;;;;;;5072742;28;20389;-74
2021/09/08 01:12:56;;;;;;;17.58;9.45;;;17.80;99.90;;;;;;5071472;28;20048;-74
2021/09/08 01:15:22;;;;;;;16.63;9.48;;;17.80;99.90;;;;;;5071473;28;20536;-74
2021/09/08 01:17:48;;;;;;;16.65;10.57;;;17.80;99.90;;;;;;5072497;28;20098;-74
2021/09/08 01:20:16;;;;;;;16.58;10.15;;;17.90;99.90;;;;;;5072600;28;20530;-76
2021/09/08 01:22:56;;;;;;;16.33;10.23;;;17.90;99.90;;;;;;5054604;28;20119;-75
2021/09/08 01:25:25;;;;;;;20.08;10.15;;;17.90;99.90;;;;;;5072584;28;20037;-74
2021/09/08 01:27:54;;;;;;;15.80;10.57;;;17.90;99.90;;;;;;5071019;28;20399;-75
2021/09/08 01:30:23;;;;;;;19.02;10.63;;;17.90;99.90;;;;;;5071037;28;20029;-73
2021/09/08 01:32:49;;;;;;;16.80;10.27;;;17.80;99.90;;;;;;5071058;28;20032;-73
2021/09/08 01:35:21;;;;;;;16.00;10.55;;;17.80;99.90;;;;;;5072356;28;20077;-74
2021/09/08 01:37:48;;;;;;;16.23;10.48;;;17.70;99.90;;;;;;5071291;28;20028;-74
2021/09/08 01:40:17;;;;;;;17.73;10.65;;;17.60;99.90;;;;;;5072272;28;20437;-74
2021/09/08 01:42:43;;;;;;;18.73;11.25;;;17.60;99.90;;;;;;5072366;28;20056;-74
2021/09/08 01:45:15;;;;;;;22.42;11.27;;;17.60;99.90;;;;;;5072258;28;20116;-74
2021/09/08 01:47:41;;;;;;;17.45;10.93;;;17.60;99.90;;;;;;5072320;28;20141;-74
2021/09/08 01:50:09;;;;;;;19.60;11.50;;;17.60;99.90;;;;;;5071073;28;20048;-74
2021/09/08 01:52:37;;;;;;;17.02;10.27;;;17.50;99.90;;;;;;5087906;28;20029;-75
2021/09/08 01:55:08;;;;;;;18.50;11.18;;;17.50;99.90;;;;;;5071991;28;20381;-74
2021/09/08 01:57:35;;;;;;;20.58;11.23;;;17.50;99.90;;;;;;5071118;28;20029;-74
2021/09/08 02:00:00;;;;;;;21.52;12.13;;;17.40;99.90;;;;;;5072277;28;20059;-74
2021/09/08 02:02:26;;;;;;;18.38;10.82;;;17.30;99.90;;;;;;5071186;28;20473;-75
2021/09/08 02:04:52;;;;;;;19.08;11.52;;;17.20;99.90;;;;;;5071876;28;20032;-75
2021/09/08 02:07:17;;;;;;;19.90;11.00;;;17.00;99.90;;;;;;5072326;28;20412;-75
2021/09/08 02:09:43;;;;;;;19.30;11.15;;;16.70;99.90;;;;;;5072323;28;20128;-74
2021/09/08 02:12:09;;;;;;;17.75;10.73;;;16.80;99.90;;;;;;5071951;28;20067;-75
2021/09/08 02:14:35;;;;;;;15.80;10.95;;;16.90;99.90;;;;;;5072989;28;20493;-74
2021/09/08 02:17:00;;;;;;;18.52;11.95;;;16.90;99.90;;;;;;5074860;28;20032;-74
2021/09/08 02:19:26;;;;;;;20.80;10.85;;;16.90;99.90;;;;;;5076236;28;20385;-74
2021/09/08 02:21:52;;;;;;;17.77;11.18;;;16.90;99.90;;;;;;5075849;28;20028;-75
2021/09/08 02:24:18;;;;;;;17.77;11.20;;;16.90;99.90;;;;;;5076029;28;20116;-75
2021/09/08 02:26:44;;;;;;;17.98;11.50;;;16.70;99.90;;;;;;5075825;28;20036;-74
2021/09/08 02:29:11;;;;;;;17.98;11.32;;;16.50;99.90;;;;;;5074902;28;20322;-75
2021/09/08 02:31:37;;;;;;;18.67;10.90;;;16.70;99.90;;;;;;5075528;28;20115;-75
2021/09/08 02:34:03;;;;;;;16.92;10.45;;;16.80;99.90;;;;;;5076740;28;20429;-75
2021/09/08 02:36:29;;;;;;;18.17;11.15;;;16.90;99.90;;;;;;5077192;28;20028;-75
2021/09/08 02:38:55;;;;;;;17.23;10.93;;;16.80;99.90;;;;;;5075005;28;20035;-75
2021/09/08 02:41:23;;;;;;;19.10;11.82;;;16.70;99.90;;;;;;5076991;28;20388;-75
2021/09/08 02:43:53;;;;;;;17.67;11.07;;;16.80;99.90;;;;;;5075890;28;20041;-75
2021/09/08 02:46:19;;;;;;;20.38;11.23;;;16.80;99.90;;;;;;5091922;28;20102;-75
2021/09/08 02:48:44;;;;;;;18.35;11.25;;;16.70;99.90;;;;;;5076229;28;20090;-75
2021/09/08 02:51:10;;;;;;;18.45;11.73;;;16.70;99.90;;;;;;5075519;28;20040;-75
2021/09/08 02:53:36;;;;;;;16.05;10.20;;;16.70;99.90;;;;;;5074598;28;20055;-74
2021/09/08 02:56:02;;;;;;;17.00;10.75;;;16.80;99.90;;;;;;5074003;28;20033;-75
2021/09/08 02:58:29;;;;;;;17.27;10.95;;;16.70;99.90;;;;;;5074098;28;20051;-74
2021/09/08 03:00:55;;;;;;;23.38;12.85;;;16.70;99.90;;;;;;5075103;28;20044;-74
2021/09/08 03:03:21;;;;;;;19.17;11.88;;;16.60;99.90;;;;;;5074353;28;20032;-75
2021/09/08 03:05:48;;;;;;;21.45;10.80;;;16.60;99.90;;;;;;5075186;28;20039;-75
2021/09/08 03:08:15;;;;;;;22.60;11.98;;;16.50;99.90;;;;;;5075101;28;20032;-74
2021/09/08 03:10:43;;;;;;;18.92;11.93;;;16.40;99.90;;;;;;5075269;28;20067;-74
2021/09/08 03:13:10;;;;;;;17.60;10.57;;;16.30;99.90;;;;;;5074789;28;20405;-74
2021/09/08 03:15:37;;;;;;;17.55;10.43;;;16.10;99.90;;;;;;5074588;28;20051;-74
2021/09/08 03:18:05;;;;;;;21.30;11.68;;;16.20;99.90;;;;;;5073605;28;20024;-74
2021/09/08 03:20:31;;;;;;;19.77;11.00;;;16.10;99.90;;;;;;5075124;28;20031;-74
2021/09/08 03:22:56;;;;;;;22.10;12.00;;;16.10;99.90;;;;;;5074632;28;20107;-74
2021/09/08 03:25:22;;;;;;;18.65;11.32;;;16.00;99.90;;;;;;5074568;28;20393;-74
2021/09/08 03:27:48;;;;;;;18.45;11.55;;;15.90;99.90;;;;;;5074855;28;20036;-74
2021/09/08 03:30:14;;;;;;;20.90;11.80;;;15.70;99.90;;;;;;5074504;28;20546;-74
2021/09/08 03:32:39;;;;;;;19.60;11.82;;;15.70;99.90;;;;;;5074452;28;20055;-74
2021/09/08 03:35:06;;;;;;;18.48;11.88;;;15.90;99.90;;;;;;5074431;28;20040;-74
2021/09/08 03:37:31;;;;;;;21.00;12.43;;;15.80;99.90;;;;;;5073481;28;20025;-74
2021/09/08 03:39:57;;;;;;;20.27;11.25;;;15.90;99.90;;;;;;5074555;28;20414;-74
2021/09/08 03:42:24;;;;;;;20.35;11.88;;;15.90;99.90;;;;;;5074378;28;20431;-71
2021/09/08 03:44:50;;;;;;;21.92;11.63;;;15.90;99.90;;;;;;5046622;28;20052;-74
2021/09/08 03:47:17;;;;;;;18.23;11.30;;;16.00;99.90;;;;;;5080050;28;20036;-73
2021/09/08 03:49:46;;;;;;;18.55;11.10;;;16.00;99.90;;;;;;5092874;28;20127;-69
2021/09/08 03:52:16;;;;;;;20.48;11.60;;;16.10;99.90;;;;;;5093377;28;20036;-69
2021/09/08 03:54:43;;;;;;;17.30;10.68;;;16.10;99.90;;;;;;5091402;28;20055;-68
2021/09/08 03:57:09;;;;;;;17.55;11.02;;;16.10;99.90;;;;;;5094139;28;20044;-69
2021/09/08 03:59:36;;;;;;;20.83;12.68;;;16.10;99.90;;;;;;5094740;28;20552;-68
2021/09/08 04:02:02;;;;;;;17.83;11.00;;;16.00;99.90;;;;;;5093059;28;20032;-68
2021/09/08 04:04:28;;;;;;;22.35;12.15;;;16.10;99.90;;;;;;5093266;28;20078;-68
2021/09/08 04:06:54;;;;;;;21.90;12.65;;;16.10;99.90;;;;;;5094515;28;20024;-69
2021/09/08 04:09:19;;;;;;;20.33;11.88;;;16.10;99.90;;;;;;5094009;28;20028;-69
2021/09/08 04:11:45;;;;;;;20.30;12.25;;;16.10;99.90;;;;;;5094496;28;20043;-70
2021/09/08 04:14:11;;;;;;;18.75;11.40;;;16.00;99.90;;;;;;5094065;28;20059;-69
2021/09/08 04:16:37;;;;;;;18.45;11.45;;;16.10;99.90;;;;;;5089519;28;20472;-70
2021/09/08 04:19:03;;;;;;;20.67;11.75;;;16.20;99.90;;;;;;5073864;28;20119;-68
2021/09/08 04:21:29;;;;;;;21.83;11.82;;;16.20;99.90;;;;;;5073919;28;20075;-68
2021/09/08 04:23:55;;;;;;;23.02;12.23;;;16.20;99.90;;;;;;5073560;28;20063;-69
2021/09/08 04:26:21;;;;;;;21.98;12.63;;;16.20;99.90;;;;;;5089136;28;20035;-68
2021/09/08 04:28:47;;;;;;;23.50;12.45;;;16.20;99.90;;;;;;5073643;28;20373;-68
2021/09/08 04:31:13;;;;;;;23.33;11.43;;;16.30;99.90;;;;;;5072113;28;20089;-69
2021/09/08 04:33:39;;;;;;;19.80;11.90;;;16.30;99.90;;;;;;5073693;28;20107;-68
2021/09/08 04:36:05;;;;;;;19.77;11.60;;;16.40;99.90;;;;;;5073216;28;20037;-68
2021/09/08 04:38:30;;;;;;;20.30;12.32;;;16.40;99.90;;;;;;5072908;28;20035;-68
2021/09/08 04:40:57;;;;;;;20.13;12.63;;;16.40;99.90;;;;;;5073116;28;20365;-61
2021/09/08 04:43:23;;;;;;;22.70;12.25;;;16.40;99.90;;;;;;5073374;28;20496;-63
2021/09/08 04:45:49;;;;;;;27.30;17.77;;;16.50;99.90;;;;;;5073445;28;20024;-62
2021/09/08 04:48:16;;;;;;;18.92;12.27;;;16.50;99.90;;;;;;5072609;28;20524;-62
2021/09/08 04:50:41;;;;;;;20.58;12.10;;;16.60;99.90;;;;;;5073462;28;20029;-62
2021/09/08 04:53:08;;;;;;;20.85;12.68;;;16.60;99.90;;;;;;5073131;28;20499;-61
2021/09/08 04:55:34;;;;;;;19.05;10.93;;;16.60;99.90;;;;;;5073044;28;20048;-61
2021/09/08 04:58:00;;;;;;;20.67;12.65;;;16.60;99.90;;;;;;5071917;28;20021;-62
2021/09/08 05:00:26;;;;;;;18.88;12.32;;;16.50;99.90;;;;;;5072831;28;20508;-62
2021/09/08 05:02:52;;;;;;;19.58;11.90;;;16.50;99.90;;;;;;5071694;28;20081;-62
2021/09/08 05:05:18;;;;;;;20.30;11.55;;;16.70;99.90;;;;;;5072979;28;20393;-61
2021/09/08 05:07:44;;;;;;;20.38;11.73;;;17.10;99.90;;;;;;5071487;28;20029;-62
2021/09/08 05:10:11;;;;;;;18.40;11.18;;;17.50;99.90;;;;;;5072562;28;20044;-62
2021/09/08 05:12:36;;;;;;;21.38;11.30;;;17.70;99.90;;;;;;5071679;28;20032;-62
2021/09/08 05:15:05;;;;;;;22.70;12.77;;;17.60;99.90;;;;;;5071456;28;20055;-62
2021/09/08 05:17:31;;;;;;;20.02;11.80;;;17.50;99.90;;;;;;5083196;28;20384;-62
2021/09/08 05:19:57;;;;;;;16.80;10.68;;;17.30;99.90;;;;;;5088817;28;20020;-62
2021/09/08 05:22:22;;;;;;;19.27;12.05;;;17.20;99.90;;;;;;5083335;28;20108;-63
2021/09/08 05:24:48;;;;;;;19.23;12.00;;;17.30;99.90;;;;;;5090408;28;20424;-74
2021/09/08 05:27:14;;;;;;;20.48;11.32;;;17.20;99.90;;;;;;5091834;28;20028;-74
2021/09/08 05:29:40;;;;;;;18.00;10.88;;;17.10;99.90;;;;;;5091426;28;20480;-74
2021/09/08 05:32:06;;;;;;;18.80;11.77;;;16.90;99.90;;;;;;5092374;28;20526;-74
2021/09/08 05:34:32;;;;;;;20.77;11.98;;;16.60;99.90;;;;;;5091638;28;20024;-74
2021/09/08 05:36:58;;;;;;;20.35;11.50;;;16.30;99.90;;;;;;5091192;28;20028;-74
2021/09/08 05:39:23;;;;;;;18.80;11.38;;;16.30;99.90;;;;;;5091570;28;20085;-74
2021/09/08 05:41:49;;;;;;;18.60;12.05;;;16.00;99.90;;;;;;5092479;28;20353;-74
2021/09/08 05:44:15;;;;;;;22.48;12.60;;;15.90;99.90;;;;;;5091218;28;20032;-74
2021/09/08 05:46:41;;;;;;;19.35;12.40;;;16.00;99.90;;;;;;5089151;28;20110;-74
2021/09/08 05:49:07;;;;;;;18.73;11.73;;;16.00;99.90;;;;;;5091108;28;20115;-74
2021/09/08 05:51:33;;;;;;;18.90;11.90;;;15.90;99.90;;;;;;5091381;28;20024;-74
2021/09/08 05:53:59;;;;;;;20.90;11.52;;;16.00;99.90;;;;;;5092467;28;20423;-74
2021/09/08 05:56:24;;;;;;;21.13;13.30;;;16.00;99.90;;;;;;5074299;28;20040;-75
2021/09/08 05:58:50;;;;;;;19.42;11.88;;;16.00;99.90;;;;;;5092192;28;20484;-75
2021/09/08 06:01:16;;;;;;;18.77;12.32;;;16.00;99.90;;;;;;5092000;28;20114;-74
2021/09/08 06:03:42;;;;;;;20.63;11.65;;;16.20;99.90;;;;;;5090985;28;20434;-74
2021/09/08 06:06:07;;;;;;;19.63;12.25;;;16.20;99.90;;;;;;5092434;28;20483;-74
2021/09/08 06:08:33;;;;;;;19.50;12.23;;;16.20;99.90;;;;;;5092366;28;20109;-74
2021/09/08 06:10:59;;;;;;;20.67;12.73;;;16.30;99.90;;;;;;5092347;28;20035;-74
2021/09/08 06:13:25;;;;;;;21.52;12.20;;;16.40;99.90;;;;;;5091925;28;20024;-74
2021/09/08 06:15:51;;;;;;;20.33;11.68;;;16.50;99.90;;;;;;5092072;28;20382;-74
2021/09/08 06:18:17;;;;;;;17.92;11.10;;;16.60;99.90;;;;;;5091796;28;20552;-74
2021/09/08 06:20:43;;;;;;;19.77;11.73;;;16.60;99.90;;;;;;5092311;28;20161;-73
2021/09/08 06:23:11;;;;;;;17.65;10.85;;;16.60;99.90;;;;;;5092154;28;20528;-74
2021/09/08 06:25:38;;;;;;;20.25;12.68;;;16.60;99.90;;;;;;5092464;28;20032;-76
2021/09/08 06:28:04;;;;;;;17.88;11.02;;;16.60;99.90;;;;;;5090648;28;20086;-73
2021/09/08 06:30:29;;;;;;;20.92;12.30;;;16.70;99.90;;;;;;5091967;28;20481;-75
2021/09/08 06:32:55;;;;;;;22.65;11.85;;;16.80;99.90;;;;;;5090999;28;20028;-74
2021/09/08 06:35:21;;;;;;;20.27;13.27;;;16.80;99.90;;;;;;5090539;28;20115;-73
2021/09/08 06:37:47;;;;;;;20.55;11.38;;;16.90;99.90;;;;;;5090595;28;20047;-74
2021/09/08 06:40:14;;;;;;;19.42;11.95;;;16.90;99.90;;;;;;5090624;28;20028;-74
2021/09/08 06:42:39;;;;;;;22.42;12.05;;;17.00;99.90;;;;;;5090743;28;20514;-74
2021/09/08 06:45:06;;;;;;;21.38;11.52;;;17.10;99.90;;;;;;5090161;28;20071;-73
2021/09/08 06:47:32;;;;;;;17.33;11.45;;;17.10;99.90;;;;;;5091919;28;20066;-74
2021/09/08 06:49:57;;;;;;;23.73;11.55;;;17.20;99.90;;;;;;5091984;28;20059;-74
2021/09/08 06:52:23;;;;;;;20.73;11.43;;;17.20;99.90;;;;;;5073637;28;20051;-75
2021/09/08 06:54:49;;;;;;;26.80;11.18;;;17.30;99.90;;;;;;5091995;28;20082;-75
2021/09/08 06:57:16;;;;;;;29.48;11.98;;;17.40;99.90;;;;;;5091819;28;20101;-77
2021/09/08 06:59:43;;;;;;;18.38;11.43;;;17.30;99.90;;;;;;5091779;28;20472;-75
2021/09/08 07:02:10;;;;;;;24.00;11.68;;;17.40;99.90;;;;;;5094208;28;20039;-77
2021/09/08 07:04:36;;;;;;;20.02;11.48;;;17.50;99.90;;;;;;5095657;28;20028;-74
2021/09/08 07:07:03;;;;;;;16.63;11.10;;;17.60;99.90;;;;;;5094354;28;20086;-75
2021/09/08 07:09:29;;;;;;;22.08;11.77;;;17.70;99.90;;;;;;5095107;28;20042;-77
2021/09/08 07:11:55;;;;;;;19.75;11.43;;;17.80;99.90;;;;;;5094368;28;20020;-78
2021/09/08 07:14:21;;;;;;;21.83;11.63;;;18.00;99.90;;;;;;5095027;28;20043;-74
2021/09/08 07:16:46;;;;;;;28.13;11.93;;;18.00;99.90;;;;;;5093950;28;20039;-74
2021/09/08 07:19:12;;;;;;;54.40;16.00;;;18.20;99.90;;;;;;5095267;28;20028;-76
2021/09/08 07:21:38;;;;;;;35.53;13.35;;;18.10;99.90;;;;;;5093718;28;20162;-76
2021/09/08 07:24:05;;;;;;;32.58;12.73;;;18.20;99.90;;;;;;5095059;28;20036;-76
2021/09/08 07:26:33;;;;;;;29.27;11.45;;;18.30;99.90;;;;;;5094948;28;20157;-76
2021/09/08 07:29:07;;;;;;;16.58;10.68;;;18.30;99.90;;;;;;5093530;28;20036;-76
2021/09/08 07:31:32;;;;;;;41.95;11.65;;;18.40;99.90;;;;;;5093680;28;20493;-76
2021/09/08 07:33:59;;;;;;;23.40;10.85;;;18.40;99.90;;;;;;5095020;28;20114;-77
2021/09/08 07:36:25;;;;;;;28.70;11.10;;;18.50;99.90;;;;;;5095013;28;20024;-76
2021/09/08 07:38:52;;;;;;;27.88;11.65;;;18.50;99.90;;;;;;5095015;28;20097;-75
2021/09/08 07:41:19;;;;;;;21.08;10.10;;;18.50;99.90;;;;;;5093430;28;20059;-76
2021/09/08 07:43:46;;;;;;;16.00;9.73;;;18.70;99.90;;;;;;5093479;28;20039;-76
2021/09/08 07:46:13;;;;;;;19.60;10.07;;;18.80;99.90;;;;;;5094525;28;20538;-73
2021/09/08 07:48:40;;;;;;;19.73;9.68;;;18.90;99.90;;;;;;5092965;28;20039;-73
2021/09/08 07:51:07;;;;;;;15.05;9.55;;;19.10;99.90;;;;;;5094631;28;20124;-73
2021/09/08 07:53:34;;;;;;;15.40;9.68;;;19.20;99.90;;;;;;5093373;28;20111;-73
2021/09/08 07:56:00;;;;;;;15.93;9.57;;;19.30;99.90;;;;;;5094303;28;20509;-74
2021/09/08 07:58:26;;;;;;;16.77;9.73;;;19.50;99.90;;;;;;5094259;28;20040;-72
2021/09/08 08:00:51;;;;;;;16.65;9.85;;;19.60;99.90;;;;;;5094328;28;20036;-73
2021/09/08 08:03:22;;;;;;;15.73;8.82;;;19.70;99.90;;;;;;5094253;28;20024;-73
2021/09/08 08:05:48;;;;;;;15.38;8.98;;;19.80;99.90;;;;;;5092986;28;20032;-73
2021/09/08 08:08:14;;;;;;;16.52;9.23;;;20.00;99.90;;;;;;5094368;28;20028;-71
2021/09/08 08:10:41;;;;;;;18.67;10.23;;;20.10;99.90;;;;;;5094044;28;20032;-73
2021/09/08 08:13:07;;;;;;;18.55;9.20;;;19.90;99.90;;;;;;5091889;28;20024;-73
2021/09/08 08:15:33;;;;;;;18.20;9.30;;;20.20;99.90;;;;;;5093674;28;20040;-73
2021/09/08 08:17:59;;;;;;;13.02;8.63;;;20.20;99.90;;;;;;5092964;28;20035;-72
2021/09/08 08:20:25;;;;;;;17.38;9.00;;;20.30;99.90;;;;;;5093840;28;20093;-73
2021/09/08 08:22:52;;;;;;;16.73;8.80;;;20.50;99.90;;;;;;5094166;28;20028;-73
2021/09/08 08:25:27;;;;;;;14.05;7.88;;;20.70;99.90;;;;;;5093519;28;20028;-73
2021/09/08 08:27:54;;;;;;;15.50;8.82;;;21.00;99.90;;;;;;5076650;28;20051;-72
2021/09/08 08:30:20;;;;;;;11.05;7.63;;;21.20;99.90;;;;;;5092291;28;20040;-73
2021/09/08 08:32:46;;;;;;;15.00;8.55;;;21.30;99.90;;;;;;5092587;28;20536;-72
2021/09/08 08:35:13;;;;;;;14.20;8.02;;;21.40;99.90;;;;;;5088923;28;20036;-73
2021/09/08 08:37:39;;;;;;;14.48;7.38;;;21.40;99.90;;;;;;5092196;28;20070;-74
2021/09/08 08:40:08;;;;;;;10.88;7.07;;;21.40;99.90;;;;;;5093799;28;20078;-72
2021/09/08 08:42:34;;;;;;;11.38;7.80;;;21.60;99.90;;;;;;5093555;28;20020;-72
2021/09/08 08:45:00;;;;;;;13.40;7.65;;;21.70;99.90;;;;;;5093654;28;20123;-72
2021/09/08 08:47:26;;;;;;;11.30;7.50;;;21.80;99.90;;;;;;5092128;28;20040;-74
2021/09/08 08:49:55;;;;;;;12.77;7.60;;;22.00;99.90;;;;;;5092160;28;20055;-74
2021/09/08 08:52:22;;;;;;;12.63;7.13;;;22.20;99.90;;;;;;5093220;28;20075;-73
2021/09/08 08:54:47;;;;;;;13.35;7.20;;;22.30;99.90;;;;;;5093594;28;20035;-74
2021/09/08 08:57:15;;;;;;;9.75;7.00;;;22.30;99.90;;;;;;5091559;28;20380;-73
2021/09/08 08:59:44;;;;;;;13.70;7.50;;;22.50;99.90;;;;;;5072982;28;20032;-72
2021/09/08 09:02:28;;;;;;;11.40;6.82;;;22.50;99.90;;;;;;5071587;28;20064;-73
2021/09/08 09:04:58;;;;;;;14.95;6.95;;;22.70;99.90;;;;;;5072994;28;20511;-73
2021/09/08 09:07:30;;;;;;;10.05;6.97;;;22.80;99.90;;;;;;5071449;28;20024;-73
2021/09/08 09:09:59;;;;;;;11.75;6.25;;;23.10;99.90;;;;;;5072476;28;20040;-73
2021/09/08 09:12:32;;;;;;;11.68;6.45;;;23.30;99.90;;;;;;5072887;28;20029;-71
2021/09/08 09:15:03;;;;;;;9.68;6.40;;;23.40;99.90;;;;;;5054631;28;20052;-72
2021/09/08 09:17:31;;;;;;;;;;;23.30;99.90;;;;;;5071802;28;20123;-73
2021/09/08 09:20:00;;;;;;;12.75;6.72;;;23.40;99.90;;;;;;5071267;28;19912;-73
2021/09/08 09:22:40;;;;;;;10.30;6.03;;;23.50;99.90;;;;;;5072247;28;20028;-73
2021/09/08 09:25:12;;;;;;;10.50;7.00;;;23.60;99.20;;;;;;5071468;28;20029;-73
2021/09/08 09:27:44;;;;;;;12.40;7.00;;;23.60;99.60;;;;;;5071451;28;20037;-73
2021/09/08 09:30:14;;;;;;;14.65;7.28;;;23.70;98.50;;;;;;5071235;28;20048;-73
2021/09/08 09:32:46;;;;;;;12.75;6.90;;;24.00;98.90;;;;;;5072437;28;20029;-73
2021/09/08 09:35:17;;;;;;;10.98;6.65;;;24.20;98.40;;;;;;5071083;28;20089;-73
2021/09/08 09:37:49;;;;;;;14.18;7.43;;;24.20;97.00;;;;;;5071198;28;20040;-73
2021/09/08 09:40:18;;;;;;;17.90;7.20;;;24.40;97.90;;;;;;5070999;28;20032;-72
2021/09/08 09:42:45;;;;;;;12.85;6.70;;;24.60;97.10;;;;;;5071189;28;20036;-73
2021/09/08 09:45:13;;;;;;;10.55;6.80;;;24.90;96.30;;;;;;5072109;28;20043;-72
2021/09/08 09:47:43;;;;;;;8.48;5.93;;;24.80;95.40;;;;;;5070649;28;20024;-73
2021/09/08 09:50:17;;;;;;;;;;;25.10;96.00;;;;;;5074353;28;20028;-73
2021/09/08 09:52:54;;;;;;;11.90;6.63;;;25.20;96.10;;;;;;5071322;28;20377;-72
2021/09/08 09:55:26;;;;;;;10.75;5.80;;;25.60;95.70;;;;;;5070864;28;20033;-72
2021/09/08 09:57:53;;;;;;;11.05;6.97;;;25.70;94.80;;;;;;5070977;28;20029;-72
2021/09/08 10:00:20;;;;;;;11.32;6.30;;;25.80;93.90;;;;;;5071682;28;20024;-72
2021/09/08 10:02:47;;;;;;;10.27;5.95;;;25.70;94.90;;;;;;5072191;28;20029;-70
2021/09/08 10:05:14;;;;;;;17.00;10.15;;;25.80;94.20;;;;;;5070663;28;20027;-72
2021/09/08 10:07:41;;;;;;;11.00;6.60;;;25.70;94.10;;;;;;5072082;28;20042;-65
2021/09/08 10:10:20;;;;;;;10.25;5.70;;;25.90;93.90;;;;;;5071898;28;20508;-78
2021/09/08 10:12:56;;;;;;;20.25;6.72;;;25.90;93.90;;;;;;5054857;28;20032;-83
2021/09/08 10:15:23;;;;;;;10.65;5.88;;;25.80;93.40;;;;;;5070611;28;20045;-82
2021/09/08 10:17:49;;;;;;;9.77;5.72;;;25.80;93.10;;;;;;5070562;28;20036;-79
2021/09/08 10:20:25;;;;;;;7.03;4.97;;;25.80;93.60;;;;;;5071015;28;20044;-80
2021/09/08 10:22:52;;;;;;;8.68;5.88;;;26.20;93.00;;;;;;5070791;28;20029;-78
2021/09/08 10:25:22;;;;;;;7.85;5.25;;;26.40;93.10;;;;;;5071864;28;20108;-89
2021/09/08 10:27:55;;;;;;;10.02;5.47;;;26.60;91.90;;;;;;5071910;28;20481;-80
2021/09/08 10:30:25;;;;;;;7.50;4.88;;;26.70;92.10;;;;;;5071702;28;20048;-80
2021/09/08 10:32:52;;;;;;;9.50;6.22;;;26.80;91.30;;;;;;5072017;28;20028;-81
2021/09/08 10:35:19;;;;;;;12.70;5.70;;;27.10;90.70;;;;;;5071146;28;20064;-83
2021/09/08 10:37:51;;;;;;;8.82;5.18;;;27.20;90.90;;;;;;5075371;28;20358;-82
2021/09/08 10:40:21;;;;;;;8.35;5.15;;;27.30;90.10;;;;;;5075583;28;20381;-81
2021/09/08 10:42:56;;;;;;;7.72;5.32;;;27.30;87.80;;;;;;5075853;28;20029;-80
2021/09/08 10:45:28;;;;;;;25.40;4.88;;;27.30;86.20;;;;;;5074310;28;20497;-80
2021/09/08 10:47:57;;;;;;;7.07;4.53;;;27.50;85.50;;;;;;5074141;28;20032;-80
2021/09/08 10:50:35;;;;;;;6.28;4.68;;;27.50;85.80;;;;;;5075522;28;20028;-80
2021/09/08 10:53:22;;;;;;;9.32;5.03;;;27.50;82.90;;;;;;5075292;28;20490;-82
2021/09/08 10:55:51;;;;;;;9.93;4.43;;;27.80;83.00;;;;;;5064831;28;20044;-83
2021/09/08 10:58:17;;;;;;;7.18;4.63;;;28.10;82.10;;;;;;5073973;28;20064;-81
2021/09/08 11:00:44;;;;;;;11.77;5.47;;;27.70;81.10;;;;;;5073958;28;20064;-83
2021/09/08 11:03:16;;;;;;;7.72;5.00;;;27.90;81.90;;;;;;5073820;28;20089;-81
2021/09/08 11:05:51;;;;;;;7.30;4.88;;;28.20;82.40;;;;;;5075463;28;20033;-82
2021/09/08 11:08:31;;;;;;;6.80;4.57;;;28.30;80.30;;;;;;5077188;28;20062;-81
2021/09/08 11:11:13;;;;;;;7.13;4.53;;;28.40;80.70;;;;;;5074520;28;20036;-82
2021/09/08 11:13:40;;;;;;;8.38;4.72;;;28.40;79.00;;;;;;5089772;28;20036;-81
2021/09/08 11:16:36;;;;;;;7.78;4.82;;;28.20;79.80;;;;;;5091466;28;20048;-82
2021/09/08 11:19:07;;;;;;;6.95;4.68;;;28.60;79.70;;;;;;5074521;28;20063;-81
2021/09/08 11:21:33;;;;;;;;;;;28.70;78.00;;;;;;5075340;28;20123;-82
2021/09/08 11:24:04;;;;;;;6.68;4.75;;;28.60;78.80;;;;;;5090644;28;19912;-82
2021/09/08 11:26:32;;;;;;;6.68;4.53;;;28.80;78.20;;;;;;5091307;28;20038;-82
2021/09/08 11:29:10;;;;;;;8.68;4.30;;;29.00;77.30;;;;;;5089782;28;20037;-82
2021/09/08 11:31:43;;;;;;;7.53;4.90;;;28.90;77.70;;;;;;5074942;28;20032;-81
2021/09/08 11:34:27;;;;;;;6.55;4.53;;;28.70;77.00;;;;;;5075045;28;20032;-82
2021/09/08 11:36:59;;;;;;;7.32;4.50;;;28.80;77.20;;;;;;5074931;28;20124;-83
2021/09/08 11:39:27;;;;;;;10.27;4.45;;;29.10;76.80;;;;;;5074581;28;20440;-81
2021/09/08 11:42:04;;;;;;;6.97;4.15;;;29.20;75.90;;;;;;5074935;28;20081;-82
2021/09/08 11:44:32;;;;;;;7.47;4.85;;;29.20;76.60;;;;;;5074706;28;20366;-83
2021/09/08 11:46:58;;;;;;;6.63;4.55;;;29.50;75.60;;;;;;5073627;28;20533;-83
2021/09/08 11:49:24;;;;;;;7.63;4.68;;;29.40;74.40;;;;;;5074177;28;20128;-84
2021/09/08 11:51:51;;;;;;;8.73;4.07;;;29.50;73.50;;;;;;5073447;28;20492;-83
2021/09/08 11:54:20;;;;;;;6.72;4.55;;;29.50;74.80;;;;;;5074536;28;20075;-84
2021/09/08 11:56:58;;;;;;;7.68;4.95;;;29.40;73.10;;;;;;5074724;28;20140;-82
2021/09/08 11:59:34;;;;;;;9.25;4.28;;;29.60;72.80;;;;;;5074448;28;20033;-84
2021/09/08 12:02:01;;;;;;;6.68;4.78;;;29.60;72.80;;;;;;5074614;28;20032;-84
2021/09/08 12:04:30;;;;;;;7.05;4.30;;;29.90;73.00;;;;;;5073566;28;20053;-86
2021/09/08 12:07:06;;;;;;;6.75;4.78;;;30.00;72.20;;;;;;5073908;28;20541;-86
2021/09/08 12:09:40;;;;;;;6.70;4.03;;;30.10;72.20;;;;;;5074697;28;20101;-82
2021/09/08 12:12:16;;;;;;;5.75;4.25;;;29.90;69.30;;;;;;5074731;28;20037;-82
2021/09/08 12:14:49;;;;;;;5.88;4.10;;;29.70;68.10;;;;;;5073153;28;20041;-84
2021/09/08 12:17:20;;;;;;;6.47;4.65;;;29.60;69.40;;;;;;5074650;28;20366;-85
2021/09/08 12:19:58;;;;;;;6.53;4.05;;;29.70;69.60;;;;;;5074593;28;20037;-85
2021/09/08 12:22:34;;;;;;;6.32;4.18;;;30.00;69.40;;;;;;5074097;28;20078;-83
2021/09/08 12:25:15;;;;;;;6.10;4.10;;;29.80;67.70;;;;;;5073522;28;20028;-85
2021/09/08 12:27:46;;;;;;;7.38;4.40;;;30.00;69.00;;;;;;5074224;28;20037;-86
2021/09/08 12:30:14;;;;;;;6.63;4.40;;;30.00;68.30;;;;;;5074160;28;20043;-86
2021/09/08 12:33:07;;;;;;;6.53;4.35;;;30.20;66.40;;;;;;5074054;28;20113;-86
2021/09/08 12:35:50;;;;;;;5.60;3.80;;;30.30;66.40;;;;;;5074456;28;20037;-85
2021/09/08 12:38:39;;;;;;;8.00;4.97;;;30.40;64.30;;;;;;5073239;28;20506;-85